sensor_id;sensor_type;location;lat;lon;timestamp;pressure;altitude;pressure_sealevel;temperature;humidity
72465;BME280;60471;52.150;4.508;2023-05-19T00:01:47;102559.31;;;12.11;66.62
72465;BME280;60471;52.150;4.508;2023-05-19T00:04:15;102554.13;;;12.08;66.58
72465;BME280;60471;52.150;4.508;2023-05-19T00:06:41;102552.69;;;11.96;66.67
72465;BME280;60471;52.150;4.508;2023-05-19T00:09:10;102548.94;;;12.03;66.67
72465;BME280;60471;52.150;4.508;2023-05-19T00:11:38;102548.94;;;12.05;66.83
72465;BME280;60471;52.150;4.508;2023-05-19T00:14:06;102541.47;;;12.19;66.51
72465;BME280;60471;52.150;4.508;2023-05-19T00:16:34;102539.31;;;12.01;66.55
72465;BME280;60471;52.150;4.508;2023-05-19T00:19:03;102542.88;;;12.00;66.63
72465;BME280;60471;52.150;4.508;2023-05-19T00:21:31;102539.56;;;11.92;66.41
72465;BME280;60471;52.150;4.508;2023-05-19T00:23:57;102544.81;;;11.93;66.64
72465;BME280;60471;52.150;4.508;2023-05-19T00:26:25;102541.28;;;11.94;66.73
72465;BME280;60471;52.150;4.508;2023-05-19T00:28:52;102538.59;;;11.96;67.04
72465;BME280;60471;52.150;4.508;2023-05-19T00:31:18;102546.84;;;11.82;66.72
72465;BME280;60471;52.150;4.508;2023-05-19T00:33:44;102550.19;;;11.90;66.77
72465;BME280;60471;52.150;4.508;2023-05-19T00:36:11;102544.78;;;11.95;66.86
72465;BME280;60471;52.150;4.508;2023-05-19T00:38:37;102545.75;;;11.90;66.37
72465;BME280;60471;52.150;4.508;2023-05-19T00:41:05;102549.25;;;11.91;66.44
72465;BME280;60471;52.150;4.508;2023-05-19T00:43:32;102552.78;;;11.92;67.13
72465;BME280;60471;52.150;4.508;2023-05-19T00:46:01;102549.53;;;11.80;66.96
72465;BME280;60471;52.150;4.508;2023-05-19T00:48:28;102541.75;;;11.74;67.03
72465;BME280;60471;52.150;4.508;2023-05-19T00:50:59;102539.88;;;11.79;66.89
72465;BME280;60471;52.150;4.508;2023-05-19T00:53:31;102540.75;;;11.80;67.09
72465;BME280;60471;52.150;4.508;2023-05-19T00:55:59;102540.13;;;11.69;67.69
72465;BME280;60471;52.150;4.508;2023-05-19T00:58:27;102535.59;;;11.74;67.44
72465;BME280;60471;52.150;4.508;2023-05-19T01:00:58;102540.19;;;11.66;67.65
72465;BME280;60471;52.150;4.508;2023-05-19T01:03:30;102540.28;;;11.61;67.97
72465;BME280;60471;52.150;4.508;2023-05-19T01:05:57;102543.59;;;11.71;67.67
72465;BME280;60471;52.150;4.508;2023-05-19T01:08:26;102536.88;;;11.57;67.80
72465;BME280;60471;52.150;4.508;2023-05-19T01:10:56;102540.69;;;11.46;68.56
72465;BME280;60471;52.150;4.508;2023-05-19T01:13:22;102536.19;;;11.51;68.40
72465;BME280;60471;52.150;4.508;2023-05-19T01:16:06;102532.88;;;11.41;68.25
72465;BME280;60471;52.150;4.508;2023-05-19T01:19:15;102533.63;;;11.46;68.28
72465;BME280;60471;52.150;4.508;2023-05-19T01:25:18;102521.72;;;11.28;68.80
72465;BME280;60471;52.150;4.508;2023-05-19T01:31:08;102513.59;;;11.36;68.84
72465;BME280;60471;52.150;4.508;2023-05-19T01:33:38;102520.06;;;11.24;69.19
72465;BME280;60471;52.150;4.508;2023-05-19T01:36:07;102524.44;;;11.25;69.38
72465;BME280;60471;52.150;4.508;2023-05-19T01:38:34;102519.06;;;11.30;69.34
72465;BME280;60471;52.150;4.508;2023-05-19T01:41:02;102525.16;;;11.32;68.85
72465;BME280;60471;52.150;4.508;2023-05-19T01:43:31;102522.66;;;11.26;69.47
72465;BME280;60471;52.150;4.508;2023-05-19T01:45:59;102513.91;;;11.24;69.79
72465;BME280;60471;52.150;4.508;2023-05-19T01:48:27;102520.84;;;11.28;69.78
72465;BME280;60471;52.150;4.508;2023-05-19T01:50:55;102521.78;;;11.25;69.28
72465;BME280;60471;52.150;4.508;2023-05-19T01:53:24;102515.81;;;11.17;69.63
72465;BME280;60471;52.150;4.508;2023-05-19T01:55:53;102522.16;;;11.10;69.59
72465;BME280;60471;52.150;4.508;2023-05-19T01:58:33;102513.63;;;10.99;70.00
72465;BME280;60471;52.150;4.508;2023-05-19T02:04:18;102515.47;;;10.94;70.03
72465;BME280;60471;52.150;4.508;2023-05-19T02:07:03;102508.75;;;10.81;70.72
72465;BME280;60471;52.150;4.508;2023-05-19T02:12:02;102515.16;;;10.69;71.34
72465;BME280;60471;52.150;4.508;2023-05-19T02:14:54;102503.81;;;10.65;71.66
72465;BME280;60471;52.150;4.508;2023-05-19T02:17:29;102512.44;;;10.72;71.20
72465;BME280;60471;52.150;4.508;2023-05-19T02:20:02;102507.00;;;10.80;71.33
72465;BME280;60471;52.150;4.508;2023-05-19T02:22:29;102504.56;;;10.70;71.69
72465;BME280;60471;52.150;4.508;2023-05-19T02:24:56;102508.09;;;10.69;71.33
72465;BME280;60471;52.150;4.508;2023-05-19T02:27:22;102504.06;;;10.53;71.93
72465;BME280;60471;52.150;4.508;2023-05-19T02:29:49;102500.56;;;10.51;72.06
72465;BME280;60471;52.150;4.508;2023-05-19T02:32:15;102502.25;;;10.55;71.67
72465;BME280;60471;52.150;4.508;2023-05-19T02:34:42;102501.44;;;10.52;71.71
72465;BME280;60471;52.150;4.508;2023-05-19T02:37:14;102504.97;;;10.51;72.16
72465;BME280;60471;52.150;4.508;2023-05-19T02:39:41;102504.97;;;10.51;72.03
72465;BME280;60471;52.150;4.508;2023-05-19T02:42:08;102497.13;;;10.48;72.33
72465;BME280;60471;52.150;4.508;2023-05-19T02:44:34;102497.88;;;10.53;72.24
72465;BME280;60471;52.150;4.508;2023-05-19T02:47:01;102491.59;;;10.60;72.00
72465;BME280;60471;52.150;4.508;2023-05-19T02:49:27;102492.59;;;10.54;71.94
72465;BME280;60471;52.150;4.508;2023-05-19T02:52:01;102490.09;;;10.48;72.35
72465;BME280;60471;52.150;4.508;2023-05-19T02:54:29;102491.13;;;10.39;72.42
72465;BME280;60471;52.150;4.508;2023-05-19T02:56:56;102490.41;;;10.33;73.02
72465;BME280;60471;52.150;4.508;2023-05-19T02:59:22;102487.44;;;10.48;72.81
72465;BME280;60471;52.150;4.508;2023-05-19T03:04:17;102489.53;;;10.32;73.12
72465;BME280;60471;52.150;4.508;2023-05-19T03:06:45;102487.81;;;10.31;73.14
72465;BME280;60471;52.150;4.508;2023-05-19T03:09:14;102487.59;;;10.40;73.11
72465;BME280;60471;52.150;4.508;2023-05-19T03:11:40;102481.59;;;10.34;73.09
72465;BME280;60471;52.150;4.508;2023-05-19T03:14:07;102480.66;;;10.36;73.32
72465;BME280;60471;52.150;4.508;2023-05-19T03:16:39;102472.63;;;10.42;73.29
72465;BME280;60471;52.150;4.508;2023-05-19T03:19:07;102480.34;;;10.50;73.13
72465;BME280;60471;52.150;4.508;2023-05-19T03:21:34;102477.25;;;10.31;73.22
72465;BME280;60471;52.150;4.508;2023-05-19T03:24:00;102477.97;;;10.38;73.40
72465;BME280;60471;52.150;4.508;2023-05-19T03:26:27;102475.50;;;10.30;73.71
72465;BME280;60471;52.150;4.508;2023-05-19T03:28:54;102475.44;;;10.33;73.95
72465;BME280;60471;52.150;4.508;2023-05-19T03:31:20;102472.84;;;10.30;74.42
72465;BME280;60471;52.150;4.508;2023-05-19T03:33:46;102468.41;;;10.34;73.65
72465;BME280;60471;52.150;4.508;2023-05-19T03:36:13;102470.06;;;10.38;74.01
72465;BME280;60471;52.150;4.508;2023-05-19T03:38:39;102470.13;;;10.35;73.87
72465;BME280;60471;52.150;4.508;2023-05-19T03:41:05;102473.03;;;10.21;74.07
72465;BME280;60471;52.150;4.508;2023-05-19T03:43:31;102474.69;;;10.27;73.90
72465;BME280;60471;52.150;4.508;2023-05-19T03:45:58;102475.66;;;10.20;74.30
72465;BME280;60471;52.150;4.508;2023-05-19T03:48:24;102470.31;;;10.26;74.37
72465;BME280;60471;52.150;4.508;2023-05-19T03:50:51;102479.19;;;10.20;74.23
72465;BME280;60471;52.150;4.508;2023-05-19T03:53:17;102468.78;;;10.14;74.46
72465;BME280;60471;52.150;4.508;2023-05-19T03:55:43;102477.47;;;10.17;74.72
72465;BME280;60471;52.150;4.508;2023-05-19T03:58:10;102475.81;;;10.13;74.37
72465;BME280;60471;52.150;4.508;2023-05-19T04:00:39;102476.75;;;10.11;74.81
72465;BME280;60471;52.150;4.508;2023-05-19T04:03:05;102481.03;;;10.16;74.18
72465;BME280;60471;52.150;4.508;2023-05-19T04:05:33;102476.78;;;10.08;74.84
72465;BME280;60471;52.150;4.508;2023-05-19T04:07:59;102478.47;;;10.12;75.16
72465;BME280;60471;52.150;4.508;2023-05-19T04:10:25;102482.72;;;10.22;74.23
72465;BME280;60471;52.150;4.508;2023-05-19T04:12:51;102479.19;;;10.23;74.36
72465;BME280;60471;52.150;4.508;2023-05-19T04:15:18;102482.69;;;10.24;74.24
72465;BME280;60471;52.150;4.508;2023-05-19T04:17:44;102487.97;;;10.24;74.40
72465;BME280;60471;52.150;4.508;2023-05-19T04:20:11;102488.66;;;10.33;73.98
72465;BME280;60471;52.150;4.508;2023-05-19T04:22:37;102486.94;;;10.29;74.17
72465;BME280;60471;52.150;4.508;2023-05-19T04:25:04;102496.75;;;10.24;74.43
72465;BME280;60471;52.150;4.508;2023-05-19T04:27:30;102489.31;;;10.41;74.14
72465;BME280;60471;52.150;4.508;2023-05-19T04:29:56;102483.19;;;10.42;74.39
72465;BME280;60471;52.150;4.508;2023-05-19T04:32:23;102488.41;;;10.44;74.10
72465;BME280;60471;52.150;4.508;2023-05-19T04:34:49;102484.03;;;10.43;74.26
72465;BME280;60471;52.150;4.508;2023-05-19T04:37:15;102483.19;;;10.42;74.32
72465;BME280;60471;52.150;4.508;2023-05-19T04:39:42;102483.63;;;10.61;74.12
72465;BME280;60471;52.150;4.508;2023-05-19T04:42:10;102486.16;;;10.67;73.96
72465;BME280;60471;52.150;4.508;2023-05-19T04:44:37;102484.56;;;10.59;74.18
72465;BME280;60471;52.150;4.508;2023-05-19T04:47:07;102483.56;;;10.66;73.93
72465;BME280;60471;52.150;4.508;2023-05-19T04:49:36;102485.75;;;10.84;74.08
72465;BME280;60471;52.150;4.508;2023-05-19T04:52:09;102490.13;;;10.85;74.08
72465;BME280;60471;52.150;4.508;2023-05-19T04:54:37;102489.06;;;10.94;73.82
72465;BME280;60471;52.150;4.508;2023-05-19T04:57:04;102490.53;;;11.07;73.53
72465;BME280;60471;52.150;4.508;2023-05-19T04:59:31;102487.53;;;11.22;72.86
72465;BME280;60471;52.150;4.508;2023-05-19T05:01:57;102489.34;;;11.20;72.59
72465;BME280;60471;52.150;4.508;2023-05-19T05:04:23;102487.09;;;11.39;72.07
72465;BME280;60471;52.150;4.508;2023-05-19T05:06:49;102494.16;;;11.39;72.43
72465;BME280;60471;52.150;4.508;2023-05-19T05:09:16;102495.91;;;11.40;72.32
72465;BME280;60471;52.150;4.508;2023-05-19T05:11:43;102498.13;;;11.56;71.85
72465;BME280;60471;52.150;4.508;2023-05-19T05:14:10;102493.78;;;11.54;71.74
72465;BME280;60471;52.150;4.508;2023-05-19T05:16:36;102494.47;;;11.60;71.62
72465;BME280;60471;52.150;4.508;2023-05-19T05:19:03;102495.97;;;11.72;72.15
72465;BME280;60471;52.150;4.508;2023-05-19T05:21:29;102497.31;;;11.88;71.39
72465;BME280;60471;52.150;4.508;2023-05-19T05:23:56;102502.38;;;11.98;71.25
72465;BME280;60471;52.150;4.508;2023-05-19T05:26:27;102510.16;;;12.02;71.54
72465;BME280;60471;52.150;4.508;2023-05-19T05:28:57;102506.66;;;12.02;70.55
72465;BME280;60471;52.150;4.508;2023-05-19T05:31:24;102513.00;;;11.96;70.59
72465;BME280;60471;52.150;4.508;2023-05-19T05:33:50;102501.50;;;11.97;70.64
72465;BME280;60471;52.150;4.508;2023-05-19T05:36:16;102503.63;;;11.83;71.35
72465;BME280;60471;52.150;4.508;2023-05-19T05:38:43;102502.50;;;11.92;71.32
72465;BME280;60471;52.150;4.508;2023-05-19T05:41:09;102515.88;;;11.87;71.60
72465;BME280;60471;52.150;4.508;2023-05-19T05:43:35;102506.50;;;12.08;70.94
72465;BME280;60471;52.150;4.508;2023-05-19T05:46:01;102505.44;;;12.13;70.72
72465;BME280;60471;52.150;4.508;2023-05-19T05:48:28;102510.69;;;12.15;70.98
72465;BME280;60471;52.150;4.508;2023-05-19T05:50:55;102494.34;;;12.32;70.39
72465;BME280;60471;52.150;4.508;2023-05-19T05:53:24;102505.72;;;12.35;70.30
72465;BME280;60471;52.150;4.508;2023-05-19T05:55:51;102507.69;;;12.58;69.80
72465;BME280;60471;52.150;4.508;2023-05-19T05:58:18;102502.75;;;12.75;69.64
72465;BME280;60471;52.150;4.508;2023-05-19T06:00:46;102493.44;;;12.92;68.76
72465;BME280;60471;52.150;4.508;2023-05-19T06:03:14;102493.25;;;12.98;68.82
72465;BME280;60471;52.150;4.508;2023-05-19T06:05:41;102493.41;;;12.93;68.27
72465;BME280;60471;52.150;4.508;2023-05-19T06:08:07;102491.16;;;13.07;67.69
72465;BME280;60471;52.150;4.508;2023-05-19T06:10:34;102495.56;;;13.09;68.20
72465;BME280;60471;52.150;4.508;2023-05-19T06:13:01;102493.06;;;13.04;68.12
72465;BME280;60471;52.150;4.508;2023-05-19T06:15:27;102495.06;;;13.25;68.22
72465;BME280;60471;52.150;4.508;2023-05-19T06:17:53;102498.22;;;13.37;67.41
72465;BME280;60471;52.150;4.508;2023-05-19T06:20:20;102491.03;;;13.40;67.56
72465;BME280;60471;52.150;4.508;2023-05-19T06:22:46;102492.50;;;13.49;66.74
72465;BME280;60471;52.150;4.508;2023-05-19T06:25:12;102494.19;;;13.51;66.79
72465;BME280;60471;52.150;4.508;2023-05-19T06:27:38;102498.09;;;13.66;66.89
72465;BME280;60471;52.150;4.508;2023-05-19T06:30:05;102505.34;;;13.61;66.96
72465;BME280;60471;52.150;4.508;2023-05-19T06:32:33;102500.97;;;13.60;66.71
72465;BME280;60471;52.150;4.508;2023-05-19T06:34:59;102498.31;;;13.60;66.82
72465;BME280;60471;52.150;4.508;2023-05-19T06:37:25;102501.72;;;13.63;66.30
72465;BME280;60471;52.150;4.508;2023-05-19T06:39:52;102501.72;;;13.63;66.75
72465;BME280;60471;52.150;4.508;2023-05-19T06:42:19;102499.28;;;13.57;67.10
72465;BME280;60471;52.150;4.508;2023-05-19T06:44:51;102501.84;;;13.60;66.52
72465;BME280;60471;52.150;4.508;2023-05-19T06:47:18;102508.88;;;13.86;66.32
72465;BME280;60471;52.150;4.508;2023-05-19T06:49:45;102508.00;;;13.86;66.70
72465;BME280;60471;52.150;4.508;2023-05-19T06:52:11;102499.00;;;13.91;66.75
72465;BME280;60471;52.150;4.508;2023-05-19T06:54:37;102500.41;;;14.02;65.71
72465;BME280;60471;52.150;4.508;2023-05-19T06:57:04;102497.97;;;14.19;65.00
72465;BME280;60471;52.150;4.508;2023-05-19T06:59:30;102502.91;;;14.30;63.97
72465;BME280;60471;52.150;4.508;2023-05-19T07:01:56;102501.78;;;14.60;62.99
72465;BME280;60471;52.150;4.508;2023-05-19T07:04:22;102500.97;;;14.82;62.47
72465;BME280;60471;52.150;4.508;2023-05-19T07:06:49;102502.09;;;14.98;61.67
72465;BME280;60471;52.150;4.508;2023-05-19T07:09:15;102501.34;;;14.94;60.79
72465;BME280;60471;52.150;4.508;2023-05-19T07:11:41;102496.97;;;15.15;60.09
72465;BME280;60471;52.150;4.508;2023-05-19T07:14:08;102494.66;;;15.28;59.69
72465;BME280;60471;52.150;4.508;2023-05-19T07:16:34;102493.69;;;15.30;59.37
72465;BME280;60471;52.150;4.508;2023-05-19T07:19:00;102503.88;;;15.19;59.44
72465;BME280;60471;52.150;4.508;2023-05-19T07:21:26;102494.63;;;15.72;58.14
72465;BME280;60471;52.150;4.508;2023-05-19T07:23:52;102501.50;;;15.77;57.84
72465;BME280;60471;52.150;4.508;2023-05-19T07:26:19;102495.09;;;15.81;56.74
72465;BME280;60471;52.150;4.508;2023-05-19T07:28:45;102501.56;;;15.96;56.88
72465;BME280;60471;52.150;4.508;2023-05-19T07:31:11;102490.69;;;16.01;56.83
72465;BME280;60471;52.150;4.508;2023-05-19T07:33:38;102495.03;;;15.83;55.76
72465;BME280;60471;52.150;4.508;2023-05-19T07:36:04;102498.22;;;15.91;55.90
72465;BME280;60471;52.150;4.508;2023-05-19T07:38:30;102491.47;;;16.23;55.60
72465;BME280;60471;52.150;4.508;2023-05-19T07:41:00;102489.53;;;16.27;54.38
72465;BME280;60471;52.150;4.508;2023-05-19T07:43:27;102491.94;;;16.51;55.12
72465;BME280;60471;52.150;4.508;2023-05-19T07:45:53;102481.00;;;16.95;52.89
72465;BME280;60471;52.150;4.508;2023-05-19T07:48:21;102488.63;;;17.03;53.03
72465;BME280;60471;52.150;4.508;2023-05-19T07:50:51;102488.50;;;17.06;52.47
72465;BME280;60471;52.150;4.508;2023-05-19T07:53:18;102483.53;;;16.98;51.83
72465;BME280;60471;52.150;4.508;2023-05-19T07:55:45;102482.31;;;16.87;51.80
72465;BME280;60471;52.150;4.508;2023-05-19T07:58:11;102483.38;;;17.01;51.66
72465;BME280;60471;52.150;4.508;2023-05-19T08:00:37;102479.88;;;17.18;50.97
72465;BME280;60471;52.150;4.508;2023-05-19T08:03:04;102477.78;;;17.42;50.22
72465;BME280;60471;52.150;4.508;2023-05-19T08:05:30;102477.91;;;17.04;50.88
72465;BME280;60471;52.150;4.508;2023-05-19T08:07:56;102477.75;;;17.25;50.95
72465;BME280;60471;52.150;4.508;2023-05-19T08:10:22;102465.53;;;17.55;50.18
72465;BME280;60471;52.150;4.508;2023-05-19T08:12:48;102463.00;;;17.71;49.18
72465;BME280;60471;52.150;4.508;2023-05-19T08:15:15;102457.06;;;17.47;49.16
72465;BME280;60471;52.150;4.508;2023-05-19T08:17:41;102464.81;;;17.71;47.30
72465;BME280;60471;52.150;4.508;2023-05-19T08:20:07;102455.41;;;17.45;48.91
72465;BME280;60471;52.150;4.508;2023-05-19T08:22:35;102464.03;;;17.32;49.81
72465;BME280;60471;52.150;4.508;2023-05-19T08:25:01;102462.84;;;17.21;49.33
72465;BME280;60471;52.150;4.508;2023-05-19T08:27:31;102460.75;;;17.62;48.77
72465;BME280;60471;52.150;4.508;2023-05-19T08:29:57;102452.53;;;17.84;48.04
72465;BME280;60471;52.150;4.508;2023-05-19T08:32:24;102454.16;;;17.86;47.80
72465;BME280;60471;52.150;4.508;2023-05-19T08:34:50;102455.50;;;17.78;47.28
72465;BME280;60471;52.150;4.508;2023-05-19T08:37:17;102449.28;;;17.94;47.06
72465;BME280;60471;52.150;4.508;2023-05-19T08:39:43;102457.31;;;18.28;46.92
72465;BME280;60471;52.150;4.508;2023-05-19T08:42:09;102456.81;;;18.04;46.47
72465;BME280;60471;52.150;4.508;2023-05-19T08:44:36;102451.56;;;18.02;46.74
72465;BME280;60471;52.150;4.508;2023-05-19T08:47:04;102440.41;;;18.27;46.37
72465;BME280;60471;52.150;4.508;2023-05-19T08:49:35;102429.81;;;18.25;45.86
72465;BME280;60471;52.150;4.508;2023-05-19T08:56:09;102440.72;;;18.21;45.75
72465;BME280;60471;52.150;4.508;2023-05-19T08:58:40;102433.16;;;18.13;45.20
72465;BME280;60471;52.150;4.508;2023-05-19T09:01:09;102439.63;;;18.25;46.09
72465;BME280;60471;52.150;4.508;2023-05-19T09:03:45;102427.13;;;18.41;44.73
72465;BME280;60471;52.150;4.508;2023-05-19T09:06:14;102434.19;;;18.42;43.85
72465;BME280;60471;52.150;4.508;2023-05-19T09:08:41;102433.44;;;18.24;44.57
72465;BME280;60471;52.150;4.508;2023-05-19T09:11:09;102434.84;;;18.95;43.95
72465;BME280;60471;52.150;4.508;2023-05-19T09:13:35;102425.53;;;18.70;42.94
72465;BME280;60471;52.150;4.508;2023-05-19T09:16:01;102428.72;;;18.45;43.28
72465;BME280;60471;52.150;4.508;2023-05-19T09:18:28;102426.66;;;18.82;41.83
72465;BME280;60471;52.150;4.508;2023-05-19T09:21:05;102427.56;;;18.49;41.83
72465;BME280;60471;52.150;4.508;2023-05-19T09:23:32;102429.56;;;18.62;42.59
72465;BME280;60471;52.150;4.508;2023-05-19T09:26:03;102425.19;;;18.92;40.79
72465;BME280;60471;52.150;4.508;2023-05-19T09:28:33;102426.75;;;18.65;41.15
72465;BME280;60471;52.150;4.508;2023-05-19T09:31:05;102425.88;;;18.80;40.64
72465;BME280;60471;52.150;4.508;2023-05-19T09:33:37;102427.63;;;19.41;40.88
72465;BME280;60471;52.150;4.508;2023-05-19T09:36:05;102432.13;;;19.40;39.59
72465;BME280;60471;52.150;4.508;2023-05-19T09:38:37;102421.59;;;19.07;39.83
72465;BME280;60471;52.150;4.508;2023-05-19T09:41:05;102425.34;;;19.35;39.10
72465;BME280;60471;52.150;4.508;2023-05-19T09:43:33;102426.69;;;19.42;38.86
72465;BME280;60471;52.150;4.508;2023-05-19T09:46:08;102427.03;;;19.22;39.59
72465;BME280;60471;52.150;4.508;2023-05-19T09:48:36;102425.47;;;19.48;39.55
72465;BME280;60471;52.150;4.508;2023-05-19T09:51:03;102424.00;;;19.72;37.74
72465;BME280;60471;52.150;4.508;2023-05-19T09:53:33;102412.53;;;19.70;36.79
72465;BME280;60471;52.150;4.508;2023-05-19T09:56:01;102421.06;;;19.77;36.79
72465;BME280;60471;52.150;4.508;2023-05-19T09:58:32;102426.41;;;19.47;37.91
72465;BME280;60471;52.150;4.508;2023-05-19T10:01:03;102409.84;;;20.13;37.14
72465;BME280;60471;52.150;4.508;2023-05-19T10:03:30;102419.91;;;19.81;37.21
72465;BME280;60471;52.150;4.508;2023-05-19T10:06:00;102413.09;;;20.18;37.02
72465;BME280;60471;52.150;4.508;2023-05-19T10:08:27;102413.38;;;20.27;36.51
72465;BME280;60471;52.150;4.508;2023-05-19T10:10:56;102415.13;;;20.00;37.18
72465;BME280;60471;52.150;4.508;2023-05-19T10:13:23;102418.13;;;20.92;35.74
72465;BME280;60471;52.150;4.508;2023-05-19T10:15:51;102416.06;;;20.56;34.97
72465;BME280;60471;52.150;4.508;2023-05-19T10:18:19;102417.22;;;20.52;34.11
72465;BME280;60471;52.150;4.508;2023-05-19T10:20:48;102415.03;;;20.71;34.56
72465;BME280;60471;52.150;4.508;2023-05-19T10:23:15;102405.41;;;21.08;35.02
72465;BME280;60471;52.150;4.508;2023-05-19T10:25:42;102402.19;;;21.81;33.95
72465;BME280;60471;52.150;4.508;2023-05-19T10:28:13;102412.97;;;21.94;34.84
72465;BME280;60471;52.150;4.508;2023-05-19T10:30:44;102401.34;;;21.55;33.32
72465;BME280;60471;52.150;4.508;2023-05-19T10:33:15;102394.22;;;21.80;32.48
72465;BME280;60471;52.150;4.508;2023-05-19T10:39:02;102384.25;;;21.82;33.36
72465;BME280;60471;52.150;4.508;2023-05-19T10:41:40;102388.19;;;22.88;31.02
72465;BME280;60471;52.150;4.508;2023-05-19T10:47:24;102378.69;;;24.10;29.20
72465;BME280;60471;52.150;4.508;2023-05-19T10:49:52;102380.25;;;24.46;28.90
72465;BME280;60471;52.150;4.508;2023-05-19T10:52:19;102389.38;;;25.71;26.96
72465;BME280;60471;52.150;4.508;2023-05-19T10:54:47;102381.41;;;26.41;26.32
72465;BME280;60471;52.150;4.508;2023-05-19T10:57:17;102377.03;;;26.98;25.88
72465;BME280;60471;52.150;4.508;2023-05-19T10:59:45;102364.22;;;25.08;26.92
72465;BME280;60471;52.150;4.508;2023-05-19T11:02:42;102377.44;;;23.91;30.73
72465;BME280;60471;52.150;4.508;2023-05-19T11:05:13;102367.44;;;24.91;30.27
72465;BME280;60471;52.150;4.508;2023-05-19T11:07:48;102370.06;;;26.16;27.83
72465;BME280;60471;52.150;4.508;2023-05-19T11:10:22;102376.44;;;27.89;25.62
72465;BME280;60471;52.150;4.508;2023-05-19T11:12:49;102380.84;;;28.00;25.04
72465;BME280;60471;52.150;4.508;2023-05-19T11:15:17;102383.03;;;27.87;25.61
72465;BME280;60471;52.150;4.508;2023-05-19T11:17:47;102380.44;;;28.50;23.59
72465;BME280;60471;52.150;4.508;2023-05-19T11:23:18;102367.91;;;26.70;26.30
72465;BME280;60471;52.150;4.508;2023-05-19T11:25:47;102367.91;;;26.89;25.79
72465;BME280;60471;52.150;4.508;2023-05-19T11:28:18;102368.38;;;27.04;26.50
72465;BME280;60471;52.150;4.508;2023-05-19T11:30:48;102372.19;;;26.92;25.79
72465;BME280;60471;52.150;4.508;2023-05-19T11:33:16;102368.22;;;27.25;25.03
72465;BME280;60471;52.150;4.508;2023-05-19T11:35:48;102364.66;;;28.08;24.62
72465;BME280;60471;52.150;4.508;2023-05-19T11:38:17;102369.66;;;27.76;24.20
72465;BME280;60471;52.150;4.508;2023-05-19T11:40:44;102360.94;;;28.09;24.45
72465;BME280;60471;52.150;4.508;2023-05-19T11:43:10;102360.97;;;28.54;24.91
72465;BME280;60471;52.150;4.508;2023-05-19T11:45:36;102357.63;;;28.61;24.40
72465;BME280;60471;52.150;4.508;2023-05-19T11:48:03;102352.91;;;28.80;23.40
72465;BME280;60471;52.150;4.508;2023-05-19T11:50:31;102355.88;;;30.17;21.80
72465;BME280;60471;52.150;4.508;2023-05-19T11:52:59;102352.47;;;29.03;22.45
72465;BME280;60471;52.150;4.508;2023-05-19T11:55:26;102356.72;;;29.05;22.43
72465;BME280;60471;52.150;4.508;2023-05-19T11:58:02;102342.84;;;29.60;22.53
72465;BME280;60471;52.150;4.508;2023-05-19T12:00:29;102348.03;;;29.02;23.07
72465;BME280;60471;52.150;4.508;2023-05-19T12:03:02;102342.09;;;29.06;22.70
72465;BME280;60471;52.150;4.508;2023-05-19T12:05:29;102341.50;;;28.77;23.12
72465;BME280;60471;52.150;4.508;2023-05-19T12:07:56;102341.50;;;28.95;22.26
72465;BME280;60471;52.150;4.508;2023-05-19T12:10:27;102333.31;;;27.68;23.84
72465;BME280;60471;52.150;4.508;2023-05-19T12:12:55;102341.59;;;27.94;23.47
72465;BME280;60471;52.150;4.508;2023-05-19T12:15:24;102331.78;;;28.11;23.09
72465;BME280;60471;52.150;4.508;2023-05-19T12:17:56;102332.84;;;29.17;22.00
72465;BME280;60471;52.150;4.508;2023-05-19T12:20:24;102331.84;;;29.44;22.63
72465;BME280;60471;52.150;4.508;2023-05-19T12:22:54;102325.25;;;30.23;21.60
72465;BME280;60471;52.150;4.508;2023-05-19T12:25:21;102326.97;;;30.24;21.18
72465;BME280;60471;52.150;4.508;2023-05-19T12:27:48;102323.50;;;29.63;21.67
72465;BME280;60471;52.150;4.508;2023-05-19T12:30:15;102325.50;;;28.74;23.24
72465;BME280;60471;52.150;4.508;2023-05-19T12:32:41;102316.00;;;29.13;21.88
72465;BME280;60471;52.150;4.508;2023-05-19T12:35:09;102320.16;;;29.00;22.42
72465;BME280;60471;52.150;4.508;2023-05-19T12:37:40;102324.88;;;28.98;22.04
72465;BME280;60471;52.150;4.508;2023-05-19T12:40:07;102315.19;;;29.47;21.48
72465;BME280;60471;52.150;4.508;2023-05-19T12:42:34;102315.81;;;29.33;22.00
72465;BME280;60471;52.150;4.508;2023-05-19T12:45:02;102314.63;;;31.03;19.65
72465;BME280;60471;52.150;4.508;2023-05-19T12:47:31;102310.22;;;30.94;19.85
72465;BME280;60471;52.150;4.508;2023-05-19T12:50:01;102310.31;;;31.96;19.70
72465;BME280;60471;52.150;4.508;2023-05-19T12:52:32;102308.16;;;30.87;20.01
72465;BME280;60471;52.150;4.508;2023-05-19T12:55:09;102308.44;;;30.60;19.88
72465;BME280;60471;52.150;4.508;2023-05-19T12:57:37;102308.69;;;30.75;20.24
72465;BME280;60471;52.150;4.508;2023-05-19T13:00:19;102309.47;;;31.40;19.47
72465;BME280;60471;52.150;4.508;2023-05-19T13:03:01;102304.75;;;31.73;19.50
72465;BME280;60471;52.150;4.508;2023-05-19T13:05:35;102297.06;;;31.22;19.63
72465;BME280;60471;52.150;4.508;2023-05-19T13:08:04;102302.09;;;32.58;18.74
72465;BME280;60471;52.150;4.508;2023-05-19T13:10:32;102302.84;;;30.53;19.90
72465;BME280;60471;52.150;4.508;2023-05-19T13:13:00;102292.94;;;31.34;20.02
72465;BME280;60471;52.150;4.508;2023-05-19T13:15:28;102280.28;;;32.50;18.26
72465;BME280;60471;52.150;4.508;2023-05-19T13:18:00;102281.41;;;32.33;18.42
72465;BME280;60471;52.150;4.508;2023-05-19T13:20:28;102290.34;;;31.49;18.67
72465;BME280;60471;52.150;4.508;2023-05-19T13:22:55;102283.59;;;30.55;19.91
72465;BME280;60471;52.150;4.508;2023-05-19T13:25:22;102282.91;;;31.10;19.46